Latest Weather Observations for Wangaratta

IDV60801

Issued at 3:31 pm EDT Friday 30 January 2015 (issued every 30 minutes, with the page automatically refreshed every 10 minutes)

About weather observations | Map of weather stations | Latest weather observations for VIC | Other Formats
Station Details ID: 082138 Name: WANGARATTA AERO Lat: -36.42 Lon: 146.31 Height: 152.6 m
Data from the previous 72 hours. | See also: Recent months at Wangaratta
Date/Time
EDT
Temp
°C
App
Temp
°C
Dew
Point
Rel
Hum
%
Delta-T
°C
Wind Press
QNH
hPa
Press
MSL
hPa
Rain
since 9 am
mm
Dir
 
Spd
km/h
Gust
km/h
Spd
kts
Gust
kts
30/03:30pm 22.5 17.4 3.1 28 9.4 SSW 19 44 10 24 1010.2 1009.6 0.0
30/03:00pm 22.8 18.7 4.3 30 9.2 ENE 15 28 8 15 1010.6 1010.0 0.0
30/02:30pm 21.7 17.2 4.3 32 8.5 SE 17 28 9 15 1011.1 1010.5 0.0
30/02:00pm 22.6 18.3 5.1 32 8.8 SSE 17 24 9 13 1011.5 1010.9 0.0
30/01:30pm 22.3 17.0 2.9 28 9.3 SE 20 33 11 18 1011.7 1011.0 0.0
30/01:00pm 21.3 17.0 3.5 31 8.6 S 15 26 8 14 1012.2 1011.5 0.0
30/12:30pm 21.6 16.7 4.2 32 8.5 S 19 26 10 14 1012.5 1011.8 0.0
30/12:00pm 20.7 16.6 4.3 34 8.0 SE 15 22 8 12 1012.9 1012.2 0.0
30/11:30am 20.1 14.9 3.8 34 7.8 SSE 20 30 11 16 1013.1 1012.4 0.0
30/11:00am 19.4 15.3 4.3 37 7.3 SE 15 22 8 12 1013.4 1012.7 0.0
30/10:30am 18.8 13.3 4.2 38 7.0 SSE 22 32 12 17 1013.8 1013.1 0.0
30/10:00am 18.1 13.2 4.3 40 6.6 SSE 19 28 10 15 1013.9 1013.2 0.0
30/09:30am 18.1 13.7 4.7 41 6.5 S 17 26 9 14 1014.0 1013.3 0.0
30/09:00am 17.2 12.3 4.9 44 5.9 SSW 20 30 11 16 1014.0 1013.3 0.0
30/08:30am 16.0 12.2 5.9 51 4.9 S 15 20 8 11 1013.9 1013.2 0.0
30/08:00am 13.1 9.0 6.0 62 3.4 SSW 17 24 9 13 1013.7 1013.0 0.0
30/07:30am 11.5 6.6 5.2 65 2.9 SSW 20 28 11 15 1013.5 1012.8 0.0
30/07:00am 10.7 6.0 5.3 69 2.5 SSW 19 22 10 12 1013.3 1012.6 0.0
30/06:30am 10.1 5.8 5.3 72 2.2 SSW 17 17 9 9 1013.1 1012.4 0.0
30/06:00am 10.2 5.4 5.4 72 2.2 SSW 20 24 11 13 1012.9 1012.2 0.0
30/05:30am 9.6 6.3 4.4 70 2.3 SW 11 17 6 9 1012.9 1012.2 0.0
30/05:00am 11.0 7.7 4.7 65 2.9 S 11 13 6 7 1013.0 1012.3 0.0
30/04:30am 10.2 6.4 5.8 74 2.0 SSW 15 19 8 10 1013.0 1012.3 0.0
30/04:00am 10.2 7.3 4.6 68 2.5 SW 9 11 5 6 1013.1 1012.4 0.0
30/03:30am 9.8 6.5 4.8 71 2.3 SW 11 13 6 7 1013.3 1012.6 0.0
30/03:00am 11.0 7.8 5.1 67 2.7 SSW 11 13 6 7 1013.6 1012.9 0.0
30/02:30am 12.3 7.9 5.0 61 3.4 SSW 17 20 9 11 1013.7 1013.0 0.0
30/02:00am 13.2 9.6 5.1 58 3.8 S 13 19 7 10 1013.9 1013.2 0.0
30/01:30am 11.9 8.4 5.5 65 3.0 SSW 13 20 7 11 1014.2 1013.5 0.0
30/01:00am 13.9 9.7 5.5 57 4.0 S 17 20 9 11 1014.4 1013.7 0.0
30/12:30am 13.2 10.1 5.6 60 3.6 S 11 15 6 8 1014.7 1014.0 0.0
30/12:00am 14.3 10.5 5.7 56 4.1 S 15 20 8 11 1014.7 1014.0 0.0
 
Date/Time
EDT
Temp
°C
App
Temp
°C
Dew
Point
Rel
Hum
%
Delta-T
°C
Wind Press
QNH
hPa
Press
MSL
hPa
Rain
since 9 am
mm
Dir
 
Spd
km/h
Gust
km/h
Spd
kts
Gust
kts
29/11:30pm 14.5 11.1 5.8 56 4.2 S 13 17 7 9 1014.8 1014.1 0.0
29/11:00pm 15.2 11.4 6.0 54 4.5 S 15 20 8 11 1014.9 1014.2 0.0
29/10:30pm 15.6 11.4 5.8 52 4.7 S 17 28 9 15 1014.9 1014.2 0.0
29/10:00pm 16.8 11.3 5.7 48 5.4 SSE 24 33 13 18 1014.8 1014.1 0.0
29/09:30pm 17.1 11.6 5.7 47 5.6 SSE 24 33 13 18 1014.7 1014.0 0.0
29/09:00pm 18.1 11.7 5.3 43 6.2 SE 28 41 15 22 1014.3 1013.6 0.0
29/08:30pm 18.7 11.8 4.8 40 6.7 SE 30 39 16 21 1014.0 1013.3 0.0
29/08:00pm 20.2 14.6 5.4 38 7.3 SE 24 33 13 18 1013.5 1012.8 0.0
29/07:30pm 21.2 13.9 4.3 33 8.3 SE 32 43 17 23 1013.2 1012.5 0.0
29/07:00pm 22.3 16.3 3.4 29 9.2 SE 24 37 13 20 1012.8 1012.1 0.0
29/06:30pm 22.1 15.0 3.7 30 8.9 SE 30 43 16 23 1012.5 1011.8 0.0
29/06:00pm 23.5 18.4 4.0 28 9.6 ESE 20 30 11 16 1012.3 1011.6 0.0
29/05:30pm 24.4 18.9 4.2 27 10.1 ESE 22 35 12 19 1012.4 1011.7 0.0
29/05:00pm 24.5 19.0 3.8 26 10.3 ESE 22 32 12 17 1012.5 1011.8 0.0
29/04:30pm 23.4 17.7 2.8 26 9.9 SE 22 32 12 17 1012.9 1012.2 0.0
29/04:00pm 25.3 20.0 2.1 22 11.2 SE 19 28 10 15 1013.3 1012.6 0.0
29/03:30pm 24.5 18.9 1.4 22 10.9 SSE 20 33 11 18 1013.6 1012.9 0.0
29/03:00pm 24.4 19.4 1.3 22 10.9 ESE 17 32 9 17 1014.0 1013.3 0.0
29/02:30pm 23.5 18.9 1.8 24 10.3 SSE 15 26 8 14 1014.5 1013.8 0.0
29/02:00pm 23.5 18.8 2.9 26 10.0 S 17 28 9 15 1014.7 1014.0 0.0
29/01:30pm 22.7 18.5 3.8 29 9.2 SSE 15 26 8 14 1015.1 1014.5 0.0
29/01:00pm 22.5 17.3 2.6 27 9.5 SE 19 28 10 15 1015.5 1014.9 0.0
29/12:30pm 22.2 17.0 3.3 29 9.1 SE 20 32 11 17 1015.9 1015.3 0.0
29/12:00pm 21.5 15.9 3.2 30 8.8 SE 22 30 12 16 1016.3 1015.7 0.0
29/11:30am 20.8 15.6 3.5 32 8.3 SE 20 30 11 16 1016.7 1016.1 0.0
29/11:00am 20.9 15.9 4.5 34 8.0 SSE 20 32 11 17 1016.9 1016.3 0.0
29/10:30am 20.1 14.3 4.6 36 7.6 ESE 24 35 13 19 1016.9 1016.3 0.0
29/10:00am 19.1 12.9 4.1 37 7.2 SE 26 33 14 18 1017.0 1016.4 0.0
29/09:30am 18.7 13.8 5.2 41 6.6 SE 20 28 11 15 1017.2 1016.6 0.0
29/09:00am 17.5 13.3 5.8 46 5.7 SSE 17 26 9 14 1017.2 1016.6 0.0
29/08:30am 16.4 12.3 6.2 51 5.0 SSE 17 24 9 13 1017.2 1016.6 0.0
29/08:00am 14.9 12.1 7.0 59 3.9 S 11 15 6 8 1017.0 1016.4 0.0
29/07:30am 12.4 10.4 7.3 71 2.5 S 7 11 4 6 1016.7 1016.1 0.0
29/07:00am 9.2 6.6 6.3 82 1.3 SSW 9 9 5 5 1016.3 1015.7 0.0
29/06:30am 8.2 5.9 5.7 84 1.1 SSW 7 9 4 5 1016.1 1015.5 0.0
29/06:00am 7.9 5.8 3.9 76 1.7 S 4 7 2 4 1016.0 1015.4 0.0
29/05:30am 9.9 7.7 6.1 77 1.8 SW 7 9 4 5 1015.8 1015.2 0.0
29/05:00am 8.8 5.9 4.8 76 1.8 SW 9 11 5 6 1015.7 1015.1 0.0
29/04:30am 10.9 7.9 5.9 71 2.3 S 11 13 6 7 1015.3 1014.7 0.0
29/04:00am 11.1 8.0 5.6 69 2.6 S 11 15 6 8 1015.3 1014.7 0.0
29/03:30am 12.1 9.0 5.7 65 3.0 S 11 13 6 7 1015.3 1014.7 0.0
29/03:00am 10.4 7.2 5.0 69 2.5 SSW 11 11 6 6 1015.6 1015.0 0.0
29/02:30am 10.6 7.0 5.2 69 2.5 SSW 13 15 7 8 1015.7 1015.1 0.0
29/02:00am 13.4 9.9 5.3 58 3.8 S 13 15 7 8 1015.9 1015.3 0.0
29/01:30am 13.2 10.1 5.4 59 3.7 S 11 15 6 8 1016.0 1015.4 0.0
29/01:00am 11.8 8.3 5.4 65 3.0 S 13 15 7 8 1016.0 1015.4 0.0
29/12:30am 13.4 9.6 6.0 61 3.5 S 15 17 8 9 1016.1 1015.5 0.0
29/12:00am 13.0 9.7 6.4 64 3.2 SSW 13 17 7 9 1016.1 1015.5 0.0
 
Date/Time
EDT
Temp
°C
App
Temp
°C
Dew
Point
Rel
Hum
%
Delta-T
°C
Wind Press
QNH
hPa
Press
MSL
hPa
Rain
since 9 am
mm
Dir
 
Spd
km/h
Gust
km/h
Spd
kts
Gust
kts
28/11:30pm 15.3 12.3 6.1 54 4.5 S 11 15 6 8 1015.9 1015.3 0.0
28/11:00pm 15.7 12.0 6.2 53 4.6 SSE 15 20 8 11 1015.9 1015.3 0.0
28/10:30pm 15.9 12.6 6.6 54 4.6 SSE 13 17 7 9 1015.8 1015.2 0.0
28/10:00pm 16.7 13.7 6.2 50 5.2 S 11 13 6 7 1015.6 1015.0 0.0
28/09:30pm 18.1 14.6 5.3 43 6.2 SSE 13 22 7 12 1015.2 1014.6 0.0
28/09:00pm 19.3 14.7 5.7 41 6.7 SSE 19 28 10 15 1014.8 1014.1 0.0
28/08:30pm 20.2 14.6 5.4 38 7.3 SE 24 32 13 17 1014.5 1013.8 0.0
28/08:00pm 21.2 15.7 5.9 37 7.7 SSE 24 35 13 19 1014.2 1013.5 0.0
28/07:30pm 22.3 15.4 6.5 36 8.1 SSE 32 50 17 27 1013.8 1013.1 0.0
28/07:23pm 22.4 15.4 6.2 35 8.3 SSE 32 50 17 27 1013.7 1013.0 0.0
28/07:00pm 23.2 16.5 5.6 32 8.9 SSE 30 46 16 25 1013.4 1012.7 0.0
28/06:30pm 24.5 18.1 5.3 29 9.8 SSE 28 37 15 20 1013.0 1012.3 0.0
28/06:13pm 25.0 18.2 5.2 28 10.1 SE 30 48 16 26 1012.7 1012.0 0.0
28/06:00pm 25.2 18.1 5.4 28 10.1 SSE 32 43 17 23 1012.6 1011.9 0.0
28/05:30pm 26.5 21.2 4.9 25 11.1 SE 22 35 12 19 1012.3 1011.6 0.0
28/05:00pm 26.3 20.3 3.5 23 11.4 SSE 24 39 13 21 1012.6 1011.9 0.0
28/04:30pm 25.6 20.6 6.3 29 10.1 S 22 32 12 17 1012.8 1012.1 0.0
28/04:00pm 26.6 21.7 7.1 29 10.4 SE 22 30 12 16 1012.8 1012.1 0.0
28/03:30pm 25.5 21.0 7.1 31 9.7 S 20 28 11 15 1013.1 1012.4 0.0
28/03:00pm 26.0 22.5 8.9 34 9.4 SE 17 26 9 14 1013.2 1012.5 0.0
28/02:30pm 25.5 22.1 9.3 36 8.9 SE 17 26 9 14 1013.6 1012.9 0.0
28/02:00pm 26.1 23.5 9.4 35 9.2 SE 13 20 7 11 1013.8 1013.1 0.0
28/01:30pm 25.2 22.3 8.2 34 9.2 SE 13 20 7 11 1014.0 1013.3 0.0
28/01:00pm 24.6 21.4 8.5 36 8.7 SE 15 28 8 15 1014.3 1013.6 0.0
28/12:30pm 25.0 22.7 8.9 36 8.8 SE 11 19 6 10 1014.4 1013.7 0.0
28/12:00pm 24.0 20.8 8.4 37 8.4 E 15 22 8 12 1014.6 1013.9 0.0
28/11:30am 23.1 20.4 8.8 40 7.7 SSE 13 20 7 11 1014.7 1014.0 0.0
28/11:00am 21.8 17.9 8.7 43 7.0 ESE 19 24 10 13 1015.1 1014.5 0.0
28/10:30am 21.9 18.7 9.8 46 6.6 SE 17 24 9 13 1015.2 1014.6 0.0
28/10:00am 21.5 18.4 8.7 44 6.8 SE 15 20 8 11 1015.2 1014.6 0.0
28/09:30am 20.7 17.3 9.0 47 6.2 SSE 17 24 9 13 1015.2 1014.6 0.0
28/09:00am 19.2 15.8 9.1 52 5.3 SSE 17 20 9 11 1015.2 1014.6 0.0
28/08:30am 18.3 15.3 9.4 56 4.7 SSE 15 19 8 10 1015.1 1014.5 0.0
28/08:00am 17.0 14.9 9.7 62 3.9 SSE 11 19 6 10 1014.6 1013.9 0.0
28/07:30am 15.6 14.1 10.6 72 2.7 SSW 9 11 5 6 1014.2 1013.5 0.0
28/07:00am 13.8 12.7 9.8 77 2.1 SSE 6 7 3 4 1014.0 1013.3 0.0
28/06:30am 12.5 10.8 9.7 83 1.4 SW 9 11 5 6 1013.8 1013.1 0.0
28/06:00am 12.8 11.4 9.4 80 1.7 S 7 9 4 5 1013.4 1012.7 0.0
28/05:30am 12.5 11.2 9.9 84 1.3 SSW 7 9 4 5 1013.2 1012.5 0.0
28/05:00am 11.9 10.0 8.9 82 1.5 S 9 11 5 6 1013.1 1012.4 0.0
28/04:30am 12.3 10.9 9.7 84 1.3 SSW 7 9 4 5 1012.9 1012.2 0.0
28/04:00am 12.0 10.4 8.8 81 1.6 SW 7 9 4 5 1012.7 1012.0 0.0
28/03:30am 13.3 11.8 9.2 76 2.1 SSW 7 7 4 4 1013.0 1012.3 0.0
28/03:00am 13.6 12.4 9.6 77 2.1 SW 6 7 3 4 1013.1 1012.4 0.0
28/02:30am 13.0 11.4 8.7 75 2.2 S 7 9 4 5 1013.3 1012.6 0.0
28/02:00am 13.5 11.9 8.8 73 2.4 S 7 9 4 5 1013.6 1012.9 0.0
28/01:30am 14.9 13.3 8.8 67 3.1 S 7 11 4 6 1013.6 1012.9 0.0
28/01:00am 16.0 13.8 9.2 64 3.5 SSE 11 15 6 8 1013.6 1012.9 0.0
28/12:30am 16.0 12.9 9.0 63 3.6 SSE 15 17 8 9 1013.5 1012.8 0.0
28/12:00am 16.8 13.7 9.0 60 4.1 SSE 15 20 8 11 1013.4 1012.7 0.0
 
Date/Time
EDT
Temp
°C
App
Temp
°C
Dew
Point
Rel
Hum
%
Delta-T
°C
Wind Press
QNH
hPa
Press
MSL
hPa
Rain
since 9 am
mm
Dir
 
Spd
km/h
Gust
km/h
Spd
kts
Gust
kts
27/11:30pm 17.1 14.4 9.0 59 4.2 S 13 17 7 9 1013.3 1012.6 0.0
27/11:00pm 16.6 14.3 9.1 61 3.9 S 11 15 6 8 1013.2 1012.5 0.0
27/10:30pm 17.0 14.7 8.9 59 4.2 S 11 13 6 7 1013.0 1012.3 0.0
27/10:00pm 17.6 14.5 8.7 56 4.6 S 15 20 8 11 1012.3 1011.6 0.0
27/09:30pm 18.4 14.9 8.9 54 5.0 S 17 22 9 12 1011.7 1011.0 0.0
27/09:00pm 19.2 15.8 9.1 52 5.3 SSE 17 24 9 13 1011.0 1010.4 0.0
27/08:30pm 20.6 16.3 9.2 48 6.1 S 22 32 12 17 1010.6 1010.0 0.0
27/08:00pm 22.3 17.2 9.1 43 7.1 SSE 26 41 14 22 1010.0 1009.4 0.0
27/07:30pm 24.6 18.8 9.3 38 8.4 SSE 30 41 16 22 1009.4 1008.8 0.0
27/07:00pm 26.2 22.5 10.0 36 9.1 SSE 20 28 11 15 1008.6 1007.9 0.0
27/06:30pm 27.8 24.4 9.1 31 10.4 SSW 17 22 9 12 1008.3 1007.6 0.0
27/06:00pm 28.2 25.4 8.5 29 10.9 S 13 20 7 11 1008.0 1007.3 0.0
27/05:30pm 29.1 26.3 8.7 28 11.3 WSW 13 24 7 13 1008.1 1007.4 0.0
27/05:00pm 29.0 27.0 8.7 28 11.3 SW 9 17 5 9 1008.5 1007.8 0.0
27/04:30pm 27.9 25.0 6.6 26 11.3 SW 11 20 6 11 1008.6 1007.9 0.0
27/04:00pm 28.4 24.9 8.7 29 10.9 SSW 17 22 9 12 1009.1 1008.4 0.0

Other Formats:

Comma delimited format used in spreadsheet applications
http://www.bom.gov.au/fwo/IDV60801/IDV60801.94889.axf

JavaScript Object Notation format (JSON) in row-major order
http://www.bom.gov.au/fwo/IDV60801/IDV60801.94889.json